Strona główna
METAR-TAF:

METAR-TAF

Lotnisko :

Port lotniczy Kraljevo-Lađevci

Kraljevo, Serbia

Szerokość geograficzna: 43-49-07N, Długość geograficzna: 020-35-07E, wysokość: 209 m

Aktualna obserwacja pogody

Raport powstał 27 minut temu, godzina 02:30 UTC
Wiatr 1 kt z kierunków zmiennych
Temperatura -1°C
Wilgotność 100%
Ciśnienie 1028 hPa
Widzialność 10 km lub więcej
Brak chmur poniżej 1500 m i brak chmur cumulonimbus

METAR: LYKV 060230Z VRB01KT CAVOK M01/M01 Q1028 NOSIG

czas: 04:57 (02:57 UTC)

Prognoza

Raport powstał 3 godziny i 57 minut temu, godzina 23:00 UTC
Prognoza ważna od 06 godzina 00 UTC do 06 godzina 24 UTC
Wiatr 3 kt od zachodnio-południowy zachód
Widzialność 10 km lub więcej
Brak chmur poniżej 1500 m i brak chmur cumulonimbus
Stopniowe zmiany
od 06 godzina 03 UTC do 06 godzina 05 UTC
Wiatr 13 kt od wschód

TAF: LYKV 052300Z 0600/0624 25003KT CAVOK TX14/0612Z TN02/0605Z BECMG 0603/0605 10013KT

Obserwacja i prognoza pogody dla ponad 4000 lotnisk (raport METAR i TAF).

Dostępne stacje oznaczono żółtymi i czerwonymi punktami na mapie.

Najedź kursorem aby zobaczyć nazwę stacji.

Kliknij aby zobaczyć obserwacje i prognozy pogody.

Aby zmienić mapę: kliknij na zielony przycisk z czarnym krzyżykiem, aby powiększyć; na zielony przycisk z myślnikiem, aby pomniejszyć; na zielone strzałki, aby przejść do map sąsiednich.


METAR-TAF: